• Join FlightAware (Why Join?)
  • Login
  • US Flag 
05:32AM EDT


 

Airport Tracker/Info


-or-


 

Live Flight TrackerFlight Track Log ✈ FLG3432 ✈ 30-Jun-2013 ✈ KSLC - KDFW

Flight Track Log - Related Links

Times and Time Zones

All times are in EDT time to prevent confusion due to time zone crossing. See the FLG3432 flight status page for this flight to view local times or setup timezone preferences in your user account.

Time Position Orientation Groundspeed Altitude Reporting Facility
EDT Latitude Longitude Course Direction KTS MPH feet Rate Location/Type
07:43PM 40.8153 -111.9792 163° South 188 216 4,900  Level Salt Lake Center
07:44PM 40.8750 -111.9872 354° North 198 228 6,600 1,500 Climbing Salt Lake Center
07:45PM 40.9478 -111.9967 354° North 248 285 8,100 1,620 Climbing Salt Lake Center
07:47PM 41.1250 -111.7999 108° East  Level FlightAware Approximate
07:47PM 41.0314 -112.0069 355° North 260 299 10,300  Level Salt Lake Center
07:48PM 41.0300 -111.7280 163° South  Level FlightAware Approximate
07:48PM 41.0900 -111.9628 30° Northeast 279 321 12,100  Level Salt Lake Center
07:49PM 40.9174 -111.6815 163° South  Level FlightAware Approximate
07:49PM 41.0458 -111.8697 122° Southeast 321 369 12,600  Level Salt Lake Center
07:50PM 40.9667 -111.7650 135° Southeast 360 414 14,200 1,500 Climbing Salt Lake Center
07:51PM 40.8919 -111.6681 136° Southeast 374 430 15,700 1,500 Climbing Salt Lake Center
07:52PM 40.8161 -111.5681 135° Southeast 385 443 17,300 1,500 Climbing Salt Lake Center
07:53PM 40.7378 -111.4667 136° Southeast 393 452 18,800 1,440 Climbing Salt Lake Center
07:54PM 40.6764 -111.3461 124° Southeast 399 459 20,300 1,320 Climbing Salt Lake Center
07:55PM 40.6367 -111.2106 111° Southeast 398 458 21,600 1,380 Climbing Salt Lake Center
07:56PM 40.5869 -111.0411 111° Southeast 409 471 23,200 1,380 Climbing Salt Lake Center
07:57PM 40.5442 -110.8944 111° Southeast 426 490 24,500 1,200 Climbing Salt Lake Center
07:58PM 40.4842 -110.7558 120° Southeast 437 503 25,700 1,020 Climbing Salt Lake Center
07:59PM 40.4161 -110.6172 123° Southeast 449 517 26,700 1,080 Climbing Salt Lake Center
08:00PM 40.3389 -110.4714 125° Southeast 454 522 28,000 1,080 Climbing Salt Lake Center
08:01PM 40.2692 -110.3381 124° Southeast 461 531 29,000 1,200 Climbing Salt Lake Center
08:02PM 40.1883 -110.1842 124° Southeast 461 531 30,500 1,200 Climbing Salt Lake Center
08:03PM 40.1194 -110.0547 125° Southeast 455 524 31,500 1,140 Climbing Salt Lake Center
08:04PM 40.0394 -109.9036 125° Southeast 453 521 32,900 1,140 Climbing Salt Lake Center
08:05PM 39.9719 -109.7753 124° Southeast 449 517 33,900 900 Climbing Salt Lake Center
08:06PM 39.8925 -109.6269 125° Southeast 447 514 34,800 480 Climbing Salt Lake Center
08:07PM 39.8242 -109.4994 125° Southeast 449 517 35,000 60 Climbing Salt Lake Center
08:08PM 39.7533 -109.3678 125° Southeast 460 529 35,000  Level Salt Lake Center
08:09PM 39.6681 -109.2094 125° Southeast 474 545 35,000  Level Denver Center
08:10PM 39.5811 -109.0522 126° Southeast 485 558 35,000  Level Denver Center
08:11PM 39.5075 -108.9189 126° Southeast 488 562 35,000  Level Salt Lake Center
08:13PM 39.4208 -108.7597 125° Southeast 491 565 35,000  Level Denver Center
08:14PM 39.3347 -108.6003 125° Southeast 489 563 35,100 600 Climbing Denver Center
08:16PM 39.1789 -108.3156 125° Southeast 451 519 37,000 540 Climbing Denver Center
08:17PM 39.1047 -108.1828 126° Southeast 476 548 37,000  Level Denver Center
08:18PM 39.0064 -108.0094 126° Southeast 470 541 37,000  Level Denver Center
08:19PM 38.9311 -107.8775 126° Southeast 476 548 37,000  Level Denver Center
08:20PM 38.8431 -107.7231 126° Southeast 478 550 37,000 540 Level Denver Center
08:21PM 38.7675 -107.5925 127° Southeast 479 551 38,200 960 Climbing Denver Center
08:22PM 38.6858 -107.4486 126° Southeast 452 520 39,000 360 Climbing Denver Center
08:23PM 38.6200 -107.3214 123° Southeast 448 516 39,000  Level Denver Center
08:24PM 38.5683 -107.1828 115° Southeast 446 513 39,000  Level Denver Center
08:25PM 38.5064 -107.0086 114° Southeast 449 517 39,000  Level Denver Center
08:26PM 38.4425 -106.8708 121° Southeast 453 521 39,000  Level Denver Center
08:27PM 38.3683 -106.7403 126° Southeast 458 527 39,000  Level Denver Center
08:28PM 38.2861 -106.5950 126° Southeast 455 524 39,000  Level Denver Center
08:29PM 38.2247 -106.4700 122° Southeast 464 534 39,000  Level Denver Center
08:30PM 38.1567 -106.3297 122° Southeast 464 534 39,000  Level Denver Center
08:31PM 38.0806 -106.1700 121° Southeast 470 541 39,000  Level Denver Center
08:32PM 37.9906 -106.0219 128° Southeast 474 545 39,000  Level Denver Center
08:33PM 37.9086 -105.9006 131° Southeast 475 547 39,000  Level Denver Center
08:34PM 37.7986 -105.7758 138° Southeast 475 547 39,000  Level Denver Center
08:35PM 37.7022 -105.6714 139° Southeast 478 550 39,000  Level Denver Center
08:37PM 37.6083 -105.5589 136° Southeast 484 557 39,000  Level Denver Center
08:38PM 37.5114 -105.4308 134° Southeast 475 547 39,000  Level Denver Center
08:39PM 37.3894 -105.2772 135° Southeast 483 556 39,000  Level Denver Center
08:40PM 37.2953 -105.1578 135° Southeast 483 556 39,000  Level Denver Center
08:41PM 37.1894 -105.0239 135° Southeast 484 557 39,000  Level Denver Center
08:42PM 37.0989 -104.9133 136° Southeast 479 551 39,000  Level Denver Center
08:43PM 36.9917 -104.7481 129° Southeast 480 552 39,000  Level Denver Center
08:44PM 36.8883 -104.5808 128° Southeast 478 550 39,000  Level Denver Center
08:45PM 36.8197 -104.4533 124° Southeast 468 539 39,000  Level Denver Center
08:46PM 36.7486 -104.2939 119° Southeast 472 543 39,000  Level Denver Center
08:47PM 36.6875 -104.1597 120° Southeast 469 540 39,000 300 Level Denver Center
08:49PM 36.6153 -104.0019 120° Southeast 470 541 39,700 540 Climbing Denver Center
08:50PM 36.5425 -103.8375 119° Southeast 463 533 40,200 300 Climbing Albuquerque Center
08:51PM 36.4792 -103.7025 120° Southeast 454 522 40,400 120 Climbing Albuquerque Center
08:52PM 36.4169 -103.5658 119° Southeast 451 519 40,500  Climbing Albuquerque Center
08:53PM 36.3544 -103.4308 120° Southeast 449 517 40,500 -120 Level Albuquerque Center
08:54PM 36.2919 -103.2953 120° Southeast 449 517 40,300 -600 Descending Albuquerque Center
08:55PM 36.2258 -103.1542 120° Southeast 462 532 39,300 -660 Descending Albuquerque Center
08:56PM 36.1564 -103.0028 120° Southeast 489 563 39,000 -180 Descending Albuquerque Center
08:57PM 36.0847 -102.8506 120° Southeast 496 571 39,000  Level Albuquerque Center
08:58PM 36.0144 -102.7017 120° Southeast 501 577 39,000  Level Albuquerque Center
08:59PM 35.9425 -102.5528 121° Southeast 504 580 39,000  Level Albuquerque Center
09:00PM 35.8728 -102.4025 120° Southeast 506 582 39,000  Level Albuquerque Center
09:01PM 35.7992 -102.2497 121° Southeast 513 590 39,000  Level Albuquerque Center
09:02PM 35.7122 -102.0686 121° Southeast 513 590 39,000  Level Albuquerque Center
09:03PM 35.6389 -101.9164 121° Southeast 515 593 39,000  Level Albuquerque Center
09:04PM 35.5650 -101.7633 121° Southeast 516 594 39,000  Level Albuquerque Center
09:05PM 35.4886 -101.6064 121° Southeast 520 598 39,000  Level Albuquerque Center
09:06PM 35.4117 -101.4494 121° Southeast 522 601 39,000  Level Albuquerque Center
09:07PM 35.3378 -101.2994 121° Southeast 522 601 39,000  Level Albuquerque Center
09:08PM 35.2614 -101.1453 121° Southeast 524 603 39,000  Level Albuquerque Center
09:09PM 35.1858 -100.9939 121° Southeast 523 602 39,000  Level Albuquerque Center
09:10PM 35.1114 -100.8431 121° Southeast 521 600 39,000  Level Albuquerque Center
09:11PM 35.0361 -100.6931 121° Southeast 519 597 39,000  Level Albuquerque Center
09:12PM 34.9608 -100.5436 122° Southeast 518 596 39,000  Level Albuquerque Center
09:13PM 34.8856 -100.3942 122° Southeast 518 596 39,000  Level Albuquerque Center
09:14PM 34.8097 -100.2456 122° Southeast 516 594 39,000 -300 Level Albuquerque Center
09:15PM 34.7336 -100.0953 122° Southeast 517 595 38,500 -1,020 Descending Albuquerque Center
09:16PM 34.6414 -99.9161 122° Southeast 519 597 37,000 -780 Descending Albuquerque Center
09:17PM 34.5706 -99.7714 121° Southeast 517 595 37,000 -840 Level Fort Worth Center
09:18PM 34.4878 -99.6181 123° Southeast 522 601 35,400 -1,560 Descending Fort Worth Center
09:19PM 34.4128 -99.4778 123° Southeast 517 595 33,900 -1,560 Descending Fort Worth Center
09:20PM 34.3403 -99.3275 120° Southeast 522 601 32,300 -1,500 Descending Fort Worth Center
09:21PM 34.2650 -99.1850 123° Southeast 515 593 31,000 -1,080 Descending Fort Worth Center
09:22PM 34.1917 -99.0581 125° Southeast 508 585 30,200 -1,200 Descending Fort Worth Center
09:23PM 34.1225 -98.9239 122° Southeast 496 571 28,700 -1,560 Descending Fort Worth Center
09:24PM 34.0447 -98.7747 122° Southeast 486 559 27,100 -1,500 Descending Fort Worth Center
09:25PM 33.9772 -98.6433 122° Southeast 479 551 25,700 -1,500 Descending Fort Worth Center
09:26PM 33.9014 -98.5119 125° Southeast 474 545 24,100 -1,500 Descending Fort Worth Center
09:27PM 33.8189 -98.3786 127° Southeast 487 560 22,700 -1,560 Descending Fort Worth Center
09:28PM 33.7447 -98.2503 125° Southeast 480 552 21,000 -1,800 Descending Fort Worth Center
09:29PM 33.6706 -98.1247 125° Southeast 473 544 19,200 -1,800 Descending Fort Worth Center
09:30PM 33.6083 -98.0194 125° Southeast 446 513 17,500 -1,800 Descending Fort Worth Center
09:31PM 33.5317 -97.8919 126° Southeast 430 495 15,600 -1,800 Descending Fort Worth Center
09:32PM 33.4714 -97.7944 127° Southeast 425 489 14,000 -1,620 Descending Fort Worth Center
09:33PM 33.4008 -97.6747 125° Southeast 406 467 12,400 -1,500 Descending Fort Worth Center
09:34PM 33.3364 -97.5875 131° Southeast 367 422 11,100 -660 Descending Fort Worth Center
09:35PM 33.2758 -97.5178 136° Southeast 336 387 11,100  Level Fort Worth Center
09:36PM 33.2000 -97.4167 132° Southeast 320 368 11,100  Level Dallas / Fort Worth TRACON
09:37PM 33.1333 -97.3500 140° Southeast 319 367 11,100 -60 Level Dallas / Fort Worth TRACON
09:38PM 33.0797 -97.2894 137° Southeast 319 367 11,000 -60 Descending Fort Worth Center
09:39PM 33.0211 -97.2203 135° Southeast 308 354 11,000  Level Fort Worth Center
09:40PM 32.9606 -97.1708 146° Southeast 288 331 11,000 -420 Level Fort Worth Center
09:41PM 32.8894 -97.1686 178° South 265 305 10,200 -1,260 Descending Fort Worth Center
09:42PM 32.8164 -97.1711 182° South 265 305 8,500 -1,800 Descending Fort Worth Center
09:43PM 32.7392 -97.1714 180° South 254 292 6,700 -1,800 Descending Fort Worth Center
09:44PM 32.6975 -97.1344 143° Southeast 217 250 4,900 -1,440 Descending Fort Worth Center
09:45PM 32.7167 -97.0500 75° East 168 193 3,700 -1,080 Descending Dallas / Fort Worth TRACON
09:46PM 32.7667 -97.0500 360° North 177 204 2,600 -1,140 Descending Dallas / Fort Worth TRACON